createdAt,value
2023-01-06T00:01:44.642Z,7.89
2023-01-06T00:04:12.583Z,7.43
2023-01-06T00:06:40.628Z,8.06
2023-01-06T00:09:08.690Z,8.56
2023-01-06T00:11:38.311Z,8.56
2023-01-06T00:14:06.969Z,8.51
2023-01-06T00:16:34.823Z,8.45
2023-01-06T00:19:04.124Z,8.53
2023-01-06T00:21:32.019Z,8.73
2023-01-06T00:24:00.153Z,8.85
2023-01-06T00:26:28.206Z,8.82
2023-01-06T00:28:57.573Z,8.78
2023-01-06T00:31:27.297Z,8.86
2023-01-06T00:33:56.907Z,8.79
2023-01-06T00:36:26.719Z,8.78
2023-01-06T00:38:54.676Z,8.78
2023-01-06T00:41:40.455Z,8.77
2023-01-06T00:44:08.700Z,8.80
2023-01-06T00:46:36.866Z,8.78
2023-01-06T00:49:07.497Z,8.98
2023-01-06T00:51:39.611Z,9.00
2023-01-06T00:54:09.209Z,8.65
2023-01-06T00:56:38.730Z,8.76
2023-01-06T00:59:09.280Z,8.68
2023-01-06T01:01:37.833Z,8.97
2023-01-06T01:04:07.430Z,8.91
2023-01-06T01:06:37.541Z,9.20
2023-01-06T01:09:07.379Z,9.11
2023-01-06T01:11:53.699Z,9.18
2023-01-06T01:14:22.171Z,9.13
2023-01-06T01:16:50.047Z,8.99
2023-01-06T01:19:18.318Z,8.90
2023-01-06T01:21:48.049Z,8.92
2023-01-06T01:24:16.339Z,9.13
2023-01-06T01:26:45.204Z,9.01
2023-01-06T01:29:14.227Z,8.80
2023-01-06T01:31:43.149Z,8.93
2023-01-06T01:34:13.192Z,8.95
2023-01-06T01:36:42.079Z,9.01
2023-01-06T01:39:13.198Z,9.01
2023-01-06T01:41:41.562Z,8.96
2023-01-06T01:44:46.879Z,9.00
2023-01-06T01:47:16.978Z,8.78
2023-01-06T01:49:47.093Z,9.03
2023-01-06T01:52:16.570Z,8.32
2023-01-06T01:54:47.281Z,8.87
2023-01-06T01:57:19.725Z,8.80
2023-01-06T01:59:48.346Z,9.02
2023-01-06T02:02:18.852Z,8.50
2023-01-06T02:04:52.341Z,8.51
2023-01-06T02:07:21.712Z,8.97
2023-01-06T02:09:58.983Z,9.01
2023-01-06T02:12:27.108Z,8.92
2023-01-06T02:14:55.398Z,8.45
2023-01-06T02:17:48.376Z,8.81
2023-01-06T02:20:35.247Z,8.79
2023-01-06T02:23:49.272Z,9.13
2023-01-06T02:27:03.060Z,9.22
2023-01-06T02:30:01.828Z,9.16
2023-01-06T02:32:59.799Z,9.25
2023-01-06T02:35:46.603Z,9.26
2023-01-06T02:38:28.616Z,9.32
2023-01-06T02:41:17.605Z,9.18
2023-01-06T02:43:56.766Z,9.06
2023-01-06T02:46:35.897Z,8.98
2023-01-06T02:49:13.395Z,9.11
2023-01-06T02:51:51.737Z,8.17
2023-01-06T02:54:29.243Z,7.98
2023-01-06T02:57:06.431Z,9.10
2023-01-06T02:59:38.855Z,8.62
2023-01-06T03:02:10.710Z,9.26
2023-01-06T03:04:44.750Z,9.28
2023-01-06T03:07:15.733Z,8.84
2023-01-06T03:09:44.893Z,9.34
2023-01-06T03:12:19.682Z,8.76
2023-01-06T03:14:52.612Z,9.29
2023-01-06T03:17:20.654Z,8.82
2023-01-06T03:19:50.646Z,9.23
2023-01-06T03:22:19.517Z,9.05
2023-01-06T03:24:48.100Z,9.21
2023-01-06T03:27:17.997Z,9.23
2023-01-06T03:29:46.516Z,9.22
2023-01-06T03:32:23.884Z,9.17
2023-01-06T03:35:05.677Z,9.38
2023-01-06T03:37:43.373Z,9.43
2023-01-06T03:40:18.970Z,9.35
2023-01-06T03:43:09.883Z,8.78
2023-01-06T03:45:50.753Z,9.41
2023-01-06T03:48:26.176Z,9.37
2023-01-06T03:51:03.224Z,9.27
2023-01-06T03:53:38.484Z,8.55
2023-01-06T03:56:14.935Z,9.29
2023-01-06T03:58:47.300Z,8.99
2023-01-06T04:01:16.627Z,8.81
2023-01-06T04:03:46.976Z,9.44
2023-01-06T04:06:16.972Z,9.59
2023-01-06T04:08:45.043Z,9.62
2023-01-06T04:11:33.778Z,9.64
2023-01-06T04:14:01.209Z,9.73
2023-01-06T04:16:30.112Z,9.71
2023-01-06T04:18:58.552Z,9.14
2023-01-06T04:21:27.944Z,9.62
2023-01-06T04:23:55.980Z,9.50
2023-01-06T04:26:24.029Z,9.41
2023-01-06T04:28:52.269Z,9.34
2023-01-06T04:31:20.375Z,9.43
2023-01-06T04:33:51.109Z,9.45
2023-01-06T04:36:20.308Z,9.47
2023-01-06T04:38:53.042Z,9.40
2023-01-06T04:41:21.699Z,9.35
2023-01-06T04:43:50.520Z,9.12
2023-01-06T04:46:18.439Z,9.31
2023-01-06T04:48:46.321Z,9.40
2023-01-06T04:51:14.282Z,9.20
2023-01-06T04:53:42.745Z,9.40
2023-01-06T04:56:13.748Z,9.21
2023-01-06T04:58:41.742Z,9.26
2023-01-06T05:01:12.032Z,9.36
2023-01-06T05:03:40.673Z,9.42
2023-01-06T05:06:10.879Z,9.41
2023-01-06T05:08:39.937Z,9.32
2023-01-06T05:11:10.176Z,9.11
2023-01-06T05:13:39.222Z,9.65
2023-01-06T05:16:08.795Z,9.38
2023-01-06T05:18:37.273Z,9.45
2023-01-06T05:21:05.759Z,9.56
2023-01-06T05:23:33.896Z,9.62
2023-01-06T05:26:01.831Z,9.50
2023-01-06T05:28:29.977Z,9.55
2023-01-06T05:31:02.271Z,9.55
2023-01-06T05:33:30.937Z,9.56
2023-01-06T05:35:59.244Z,9.59
2023-01-06T05:38:27.414Z,9.56
2023-01-06T05:40:56.830Z,9.68
2023-01-06T05:43:25.462Z,9.74
2023-01-06T05:45:53.476Z,9.62
2023-01-06T05:48:26.296Z,9.76
2023-01-06T05:50:54.600Z,9.51
2023-01-06T05:53:22.462Z,9.86
2023-01-06T05:55:50.560Z,9.65
2023-01-06T05:58:18.421Z,9.36
2023-01-06T06:00:46.332Z,9.85
2023-01-06T06:03:14.239Z,9.24
2023-01-06T06:05:43.557Z,9.80
2023-01-06T06:08:11.442Z,9.27
2023-01-06T06:10:39.261Z,9.70
2023-01-06T06:13:07.098Z,9.73
2023-01-06T06:15:35.067Z,9.56
2023-01-06T06:18:03.038Z,9.72
2023-01-06T06:20:31.052Z,9.85
2023-01-06T06:23:00.285Z,9.87
2023-01-06T06:25:29.461Z,9.33
2023-01-06T06:28:00.844Z,9.64
2023-01-06T06:30:28.699Z,9.81
2023-01-06T06:32:56.543Z,9.84
2023-01-06T06:35:24.568Z,9.90
2023-01-06T06:37:55.054Z,9.86
2023-01-06T06:40:24.264Z,9.84
2023-01-06T06:42:53.230Z,9.85
2023-01-06T06:45:21.269Z,9.86
2023-01-06T06:47:49.412Z,9.85
2023-01-06T06:50:17.462Z,9.31
2023-01-06T06:52:45.681Z,9.98
2023-01-06T06:55:13.524Z,9.84
2023-01-06T06:57:42.877Z,8.97
2023-01-06T07:00:12.349Z,9.85
2023-01-06T07:02:40.460Z,9.65
2023-01-06T07:05:08.868Z,9.72
2023-01-06T07:07:36.717Z,9.66
2023-01-06T07:10:05.051Z,9.68
2023-01-06T07:12:32.894Z,9.82
2023-01-06T07:15:02.121Z,9.98
2023-01-06T07:17:29.957Z,9.49
2023-01-06T07:19:57.937Z,9.76
2023-01-06T07:22:25.821Z,9.98
2023-01-06T07:24:53.762Z,9.82
2023-01-06T07:27:21.833Z,10.02
2023-01-06T07:29:49.691Z,9.92
2023-01-06T07:32:19.000Z,10.18
2023-01-06T07:34:46.935Z,9.81
2023-01-06T07:37:14.817Z,9.80
2023-01-06T07:39:42.907Z,9.88
2023-01-06T07:42:11.677Z,9.68
2023-01-06T07:44:39.587Z,9.89
2023-01-06T07:47:07.845Z,10.08
2023-01-06T07:49:37.490Z,10.27
2023-01-06T07:52:05.901Z,9.31
2023-01-06T07:54:33.866Z,10.18
2023-01-06T07:57:01.772Z,9.86
2023-01-06T07:59:29.981Z,10.05
2023-01-06T08:01:57.877Z,10.14
2023-01-06T08:04:25.762Z,10.20
2023-01-06T08:06:55.035Z,9.70
2023-01-06T08:09:22.975Z,10.08
2023-01-06T08:11:50.909Z,10.10
2023-01-06T08:14:18.895Z,10.15
2023-01-06T08:16:46.761Z,10.25
2023-01-06T08:19:14.627Z,10.15
2023-01-06T08:21:42.447Z,10.15
2023-01-06T08:24:12.113Z,10.01
2023-01-06T08:26:40.214Z,10.23
2023-01-06T08:29:08.569Z,10.15
2023-01-06T08:31:36.894Z,9.89
2023-01-06T08:34:05.621Z,10.15
2023-01-06T08:36:33.806Z,10.14
2023-01-06T08:39:02.056Z,10.07
2023-01-06T08:41:31.477Z,9.99
2023-01-06T08:43:59.457Z,10.17
2023-01-06T08:46:27.681Z,10.19
2023-01-06T08:48:57.643Z,10.18
2023-01-06T08:51:26.198Z,10.09
2023-01-06T08:53:54.627Z,10.15
2023-01-06T08:56:24.490Z,9.68
2023-01-06T08:58:55.388Z,10.04
2023-01-06T09:01:24.973Z,10.04
2023-01-06T09:03:53.141Z,10.25
2023-01-06T09:06:22.705Z,9.93
2023-01-06T09:08:50.601Z,9.84
2023-01-06T09:11:18.816Z,10.16
2023-01-06T09:13:48.018Z,10.14
2023-01-06T09:16:18.120Z,10.22
2023-01-06T09:18:49.828Z,10.21
2023-01-06T09:21:19.117Z,10.28
2023-01-06T09:23:47.239Z,9.63
2023-01-06T09:26:16.323Z,9.98
2023-01-06T09:28:44.542Z,10.40
2023-01-06T09:31:12.966Z,10.26
2023-01-06T09:33:42.190Z,10.30
2023-01-06T09:36:10.073Z,10.27
2023-01-06T09:38:37.995Z,10.37
2023-01-06T09:41:20.578Z,9.91
2023-01-06T09:43:54.115Z,10.09
2023-01-06T09:46:26.611Z,9.29
2023-01-06T09:49:04.033Z,10.27
2023-01-06T09:51:34.853Z,10.21
2023-01-06T09:54:11.044Z,10.10
2023-01-06T09:56:41.704Z,10.50
2023-01-06T09:59:18.249Z,10.37
2023-01-06T10:01:49.978Z,9.91
2023-01-06T10:04:31.714Z,10.03
2023-01-06T10:07:14.562Z,10.28
2023-01-06T10:09:56.197Z,9.64
2023-01-06T10:12:40.770Z,10.23
2023-01-06T10:15:20.578Z,10.16
2023-01-06T10:18:07.810Z,9.19
2023-01-06T10:20:55.819Z,9.99
2023-01-06T10:23:38.872Z,10.10
2023-01-06T10:26:13.736Z,9.96
2023-01-06T10:28:44.689Z,9.84
2023-01-06T10:31:16.629Z,9.95
2023-01-06T10:33:48.613Z,10.03
2023-01-06T10:36:19.755Z,10.20
2023-01-06T10:38:52.277Z,10.15
2023-01-06T10:41:27.826Z,10.14
2023-01-06T10:43:55.794Z,10.28
2023-01-06T10:46:24.346Z,10.29
2023-01-06T10:48:52.547Z,10.15
2023-01-06T10:51:40.832Z,10.06
2023-01-06T10:54:12.149Z,9.32
2023-01-06T10:56:42.589Z,9.89
2023-01-06T10:59:12.441Z,10.04
2023-01-06T11:01:50.282Z,10.03
2023-01-06T11:04:19.872Z,10.00
2023-01-06T11:06:51.750Z,9.82
2023-01-06T11:09:40.195Z,10.12
2023-01-06T11:12:13.153Z,10.17
2023-01-06T11:14:42.503Z,10.08
2023-01-06T11:17:15.713Z,9.98
2023-01-06T11:19:45.877Z,10.16
2023-01-06T11:22:36.005Z,10.33
2023-01-06T11:25:05.663Z,10.28
2023-01-06T11:27:33.675Z,10.33
2023-01-06T11:30:22.005Z,9.82
2023-01-06T11:32:49.921Z,10.23
2023-01-06T11:35:22.018Z,10.06
2023-01-06T11:37:58.600Z,10.14
2023-01-06T11:40:30.133Z,10.34
2023-01-06T11:43:00.750Z,10.45
2023-01-06T11:45:35.579Z,9.88
2023-01-06T11:48:06.512Z,10.36
2023-01-06T11:50:34.714Z,10.41
2023-01-06T11:53:05.729Z,10.47
2023-01-06T11:55:33.670Z,10.55
2023-01-06T11:58:06.459Z,10.62
2023-01-06T12:00:48.717Z,10.63
2023-01-06T12:03:25.942Z,10.12
2023-01-06T12:06:01.662Z,10.43
2023-01-06T12:08:36.000Z,10.59
2023-01-06T12:11:08.421Z,10.34
2023-01-06T12:13:44.130Z,10.45
2023-01-06T12:16:17.530Z,10.31
2023-01-06T12:18:46.041Z,10.46
2023-01-06T12:21:20.400Z,10.49
2023-01-06T12:23:50.805Z,10.57
2023-01-06T12:26:24.009Z,10.76
2023-01-06T12:28:56.190Z,10.56
2023-01-06T12:31:28.194Z,10.93
2023-01-06T12:34:01.579Z,11.08
2023-01-06T12:36:38.762Z,10.93
2023-01-06T12:39:13.832Z,11.09
2023-01-06T12:41:49.128Z,11.07
2023-01-06T12:44:31.159Z,10.49
2023-01-06T12:47:06.043Z,11.22
2023-01-06T12:49:42.466Z,11.08
2023-01-06T12:52:17.147Z,11.14
2023-01-06T12:54:53.432Z,11.00
2023-01-06T12:57:38.580Z,11.08
2023-01-06T13:00:27.121Z,11.02
2023-01-06T13:03:13.220Z,11.05
2023-01-06T13:05:55.648Z,10.95
2023-01-06T13:08:39.583Z,11.02
2023-01-06T13:11:20.208Z,10.86
2023-01-06T13:13:57.358Z,10.85
2023-01-06T13:16:32.133Z,10.76
2023-01-06T13:19:10.869Z,10.73
2023-01-06T13:21:40.707Z,10.66
2023-01-06T13:24:30.004Z,10.79
2023-01-06T13:27:21.958Z,10.99
2023-01-06T13:30:05.046Z,11.02
2023-01-06T13:32:53.207Z,10.69
2023-01-06T13:35:57.092Z,10.74
2023-01-06T13:38:46.482Z,10.91
2023-01-06T13:41:19.019Z,11.12
2023-01-06T13:43:51.436Z,10.46
2023-01-06T13:46:21.933Z,11.20
2023-01-06T13:48:53.621Z,11.16
2023-01-06T13:51:24.420Z,11.03
2023-01-06T13:53:54.740Z,11.03
2023-01-06T13:56:27.035Z,11.14
2023-01-06T13:59:29.974Z,11.08
2023-01-06T14:01:59.979Z,11.11
2023-01-06T14:04:58.561Z,10.98
2023-01-06T14:07:35.584Z,10.82
2023-01-06T14:10:05.371Z,10.93
2023-01-06T14:12:36.062Z,10.90
2023-01-06T14:15:08.673Z,10.78
2023-01-06T14:17:42.766Z,10.56
2023-01-06T14:20:28.634Z,10.67
2023-01-06T14:23:05.811Z,10.73
2023-01-06T14:25:39.991Z,10.65
2023-01-06T14:28:27.150Z,10.42
2023-01-06T14:31:28.433Z,10.47
2023-01-06T14:33:58.871Z,10.30
2023-01-06T14:36:30.486Z,10.62
2023-01-06T14:39:02.253Z,10.44
2023-01-06T14:41:33.773Z,10.45
2023-01-06T14:44:04.758Z,10.44
2023-01-06T14:46:39.514Z,10.31
2023-01-06T14:49:18.164Z,9.78
2023-01-06T14:51:47.795Z,10.27
2023-01-06T14:54:22.812Z,10.19
2023-01-06T14:56:54.866Z,10.35
2023-01-06T14:59:22.989Z,10.21
2023-01-06T15:02:15.023Z,10.24
2023-01-06T15:04:45.509Z,10.21
2023-01-06T15:07:18.870Z,10.22
2023-01-06T15:09:47.846Z,10.15
2023-01-06T15:12:26.974Z,10.13
2023-01-06T15:14:54.926Z,10.17
2023-01-06T15:17:23.327Z,9.30
2023-01-06T15:19:53.829Z,9.77
2023-01-06T15:22:24.805Z,10.00
2023-01-06T15:24:52.961Z,9.71
2023-01-06T15:27:21.311Z,10.00
2023-01-06T15:29:53.843Z,9.96
2023-01-06T15:32:23.364Z,9.89
2023-01-06T15:34:53.820Z,9.87
2023-01-06T15:37:25.346Z,10.21
2023-01-06T15:39:54.750Z,10.08
2023-01-06T15:42:24.860Z,10.04
2023-01-06T15:44:58.136Z,10.10
2023-01-06T15:47:32.453Z,9.99
2023-01-06T15:50:05.223Z,10.02
2023-01-06T15:52:37.020Z,9.93
2023-01-06T15:55:07.890Z,9.84
2023-01-06T15:57:40.424Z,9.85
2023-01-06T16:00:20.319Z,9.80
2023-01-06T16:02:49.422Z,9.50
2023-01-06T16:05:39.633Z,9.75
2023-01-06T16:08:17.582Z,9.70
2023-01-06T16:10:46.672Z,9.60
2023-01-06T16:13:22.628Z,9.58
2023-01-06T16:15:52.750Z,9.51
2023-01-06T16:18:27.778Z,9.54
2023-01-06T16:20:57.884Z,9.59
2023-01-06T16:23:30.755Z,9.60
2023-01-06T16:26:15.518Z,9.55
2023-01-06T16:28:46.963Z,9.60
2023-01-06T16:31:28.263Z,9.35
2023-01-06T16:33:56.796Z,9.40
2023-01-06T16:36:26.551Z,9.35
2023-01-06T16:38:54.527Z,9.28
2023-01-06T16:41:22.819Z,9.24
2023-01-06T16:43:50.785Z,9.18
2023-01-06T16:46:21.903Z,9.09
2023-01-06T16:48:51.672Z,9.02
2023-01-06T16:51:19.600Z,8.96
2023-01-06T16:53:49.856Z,8.95
2023-01-06T16:56:20.015Z,8.83
2023-01-06T16:58:47.982Z,8.43
2023-01-06T17:01:18.195Z,8.62
2023-01-06T17:03:46.377Z,8.66
2023-01-06T17:06:19.100Z,8.69
2023-01-06T17:08:49.062Z,8.62
2023-01-06T17:11:18.994Z,8.69
2023-01-06T17:13:53.685Z,8.39
2023-01-06T17:16:27.072Z,8.66
2023-01-06T17:18:59.468Z,8.66
2023-01-06T17:21:31.368Z,8.15
2023-01-06T17:24:10.798Z,8.62
2023-01-06T17:26:38.983Z,8.77
2023-01-06T17:29:15.371Z,7.94
2023-01-06T17:31:46.117Z,8.58
2023-01-06T17:34:17.460Z,8.57
2023-01-06T17:36:47.369Z,8.02
2023-01-06T17:39:20.849Z,8.46
2023-01-06T17:41:48.849Z,8.37
2023-01-06T17:44:18.423Z,8.46
2023-01-06T17:46:47.378Z,8.39
2023-01-06T17:49:35.403Z,8.34
2023-01-06T17:52:15.574Z,8.30
2023-01-06T17:55:11.424Z,8.42
2023-01-06T17:57:41.755Z,8.48
2023-01-06T18:00:21.988Z,8.48
2023-01-06T18:02:56.294Z,8.29
2023-01-06T18:06:12.576Z,8.28
2023-01-06T18:08:40.529Z,7.58
2023-01-06T18:11:29.280Z,8.19
2023-01-06T18:14:02.913Z,8.27
2023-01-06T18:16:33.191Z,8.36
2023-01-06T18:19:19.897Z,8.50
2023-01-06T18:21:49.980Z,8.60
2023-01-06T18:24:22.592Z,8.56
2023-01-06T18:26:55.977Z,8.71
2023-01-06T18:29:26.342Z,8.60
2023-01-06T18:31:54.942Z,8.68
2023-01-06T18:34:29.676Z,8.71
2023-01-06T18:36:59.429Z,8.81
2023-01-06T18:39:30.142Z,8.87
2023-01-06T18:42:08.763Z,9.04
2023-01-06T18:44:36.747Z,9.02
2023-01-06T18:47:15.092Z,8.94
2023-01-06T18:49:43.382Z,9.36
2023-01-06T18:52:37.968Z,9.31
2023-01-06T18:55:22.571Z,9.24
2023-01-06T18:57:59.554Z,9.23
2023-01-06T19:00:39.630Z,9.33
2023-01-06T19:03:24.397Z,9.06
2023-01-06T19:05:55.080Z,9.16
2023-01-06T19:08:31.931Z,8.61
2023-01-06T19:11:00.074Z,9.11
2023-01-06T19:13:30.360Z,9.05
2023-01-06T19:16:02.210Z,9.08
2023-01-06T19:18:33.615Z,9.02
2023-01-06T19:21:05.761Z,9.01
2023-01-06T19:23:35.350Z,9.01
2023-01-06T19:26:06.705Z,9.09
2023-01-06T19:28:37.389Z,8.62
2023-01-06T19:31:08.415Z,9.09
2023-01-06T19:33:42.647Z,9.20
2023-01-06T19:36:42.868Z,9.08
2023-01-06T19:39:25.326Z,8.16
2023-01-06T19:41:55.153Z,9.06
2023-01-06T19:44:31.226Z,9.03
2023-01-06T19:47:01.489Z,8.89
2023-01-06T19:49:39.360Z,9.01
2023-01-06T19:52:27.631Z,9.07
2023-01-06T19:54:56.890Z,9.11
2023-01-06T19:57:29.368Z,9.14
2023-01-06T20:00:02.862Z,9.11
2023-01-06T20:02:45.282Z,8.31
2023-01-06T20:05:13.447Z,9.04
2023-01-06T20:07:41.565Z,8.73
2023-01-06T20:10:10.147Z,8.65
2023-01-06T20:12:38.180Z,9.32
2023-01-06T20:15:08.844Z,9.31
2023-01-06T20:17:36.881Z,9.10
2023-01-06T20:20:05.720Z,9.01
2023-01-06T20:22:33.638Z,9.22
2023-01-06T20:25:01.506Z,9.23
2023-01-06T20:27:29.787Z,9.06
2023-01-06T20:29:57.829Z,9.31
2023-01-06T20:32:27.001Z,9.44
2023-01-06T20:34:54.869Z,9.03
2023-01-06T20:37:22.688Z,9.62
2023-01-06T20:39:50.868Z,9.61
2023-01-06T20:42:20.031Z,9.49
2023-01-06T20:44:47.963Z,9.45
2023-01-06T20:47:15.876Z,9.18
2023-01-06T20:49:45.539Z,9.27
2023-01-06T20:52:13.391Z,8.92
2023-01-06T20:54:41.312Z,9.06
2023-01-06T20:57:09.118Z,8.85
2023-01-06T20:59:37.013Z,9.09
2023-01-06T21:02:05.262Z,9.29
2023-01-06T21:04:34.449Z,9.04
2023-01-06T21:07:03.883Z,9.36
2023-01-06T21:09:31.981Z,9.36
2023-01-06T21:11:59.923Z,9.04
2023-01-06T21:14:29.069Z,9.37
2023-01-06T21:16:57.391Z,9.38
2023-01-06T21:19:25.532Z,9.33
2023-01-06T21:21:53.557Z,9.30
2023-01-06T21:24:22.762Z,9.27
2023-01-06T21:26:50.635Z,9.07
2023-01-06T21:29:18.882Z,9.24
2023-01-06T21:31:48.000Z,9.31
2023-01-06T21:34:15.947Z,9.40
2023-01-06T21:36:43.834Z,9.41
2023-01-06T21:39:11.963Z,9.53
2023-01-06T21:41:58.592Z,9.58
2023-01-06T21:44:26.440Z,9.56
2023-01-06T21:46:54.362Z,9.54
2023-01-06T21:49:22.477Z,9.43
2023-01-06T21:51:51.304Z,9.39
2023-01-06T21:54:19.275Z,9.42
2023-01-06T21:56:48.769Z,9.41
2023-01-06T21:59:17.009Z,9.45
2023-01-06T22:01:45.375Z,9.47
2023-01-06T22:04:13.308Z,9.51
2023-01-06T22:06:44.043Z,9.57
2023-01-06T22:09:16.223Z,9.58
2023-01-06T22:11:44.888Z,9.58
2023-01-06T22:14:15.010Z,9.52
2023-01-06T22:16:43.453Z,9.19
2023-01-06T22:19:13.884Z,9.32
2023-01-06T22:21:44.043Z,9.54
2023-01-06T22:24:14.707Z,9.38
2023-01-06T22:26:42.590Z,9.41
2023-01-06T22:29:11.239Z,9.10
2023-01-06T22:31:40.482Z,9.27
2023-01-06T22:34:08.963Z,9.19
2023-01-06T22:36:37.009Z,9.18
2023-01-06T22:39:05.132Z,9.24
2023-01-06T22:41:33.190Z,9.31
2023-01-06T22:44:01.235Z,9.05
2023-01-06T22:46:29.185Z,9.26
2023-01-06T22:48:58.738Z,9.13
2023-01-06T22:51:28.547Z,9.17
2023-01-06T22:53:57.329Z,9.15
2023-01-06T22:56:25.670Z,9.19
2023-01-06T22:58:53.543Z,9.24
2023-01-06T23:01:22.317Z,9.03
2023-01-06T23:03:50.516Z,9.03
2023-01-06T23:06:19.935Z,9.02
2023-01-06T23:08:59.525Z,9.13
2023-01-06T23:11:28.419Z,9.06
2023-01-06T23:13:57.944Z,9.07
2023-01-06T23:16:27.165Z,9.07
2023-01-06T23:18:55.538Z,8.11
2023-01-06T23:21:26.814Z,8.49
2023-01-06T23:23:55.193Z,9.12
2023-01-06T23:26:25.442Z,9.10
2023-01-06T23:28:53.111Z,9.09
2023-01-06T23:31:22.859Z,9.11
2023-01-06T23:33:53.621Z,9.15
2023-01-06T23:36:21.943Z,9.14
2023-01-06T23:38:51.852Z,8.60
2023-01-06T23:41:21.302Z,9.04
2023-01-06T23:43:50.250Z,9.06
2023-01-06T23:46:20.328Z,9.08
2023-01-06T23:48:49.487Z,8.96
2023-01-06T23:51:18.359Z,9.02
2023-01-06T23:53:47.163Z,8.76
2023-01-06T23:56:18.151Z,8.99
2023-01-06T23:58:47.850Z,8.92
